Flight Track Log - Related Links

Times and Time Zones

All times are in EDT time to prevent confusion due to time zone crossing. See the N758FR flight status page for this flight to view local times or setup timezone preferences in your user account.

Time Position Orientation Groundspeed Altitude Reporting Facility
EDT Latitude Longitude Course Direction KTS MPH feet Rate Location/Type
Sun 02:50:59 PM 42.5333 -70.9833 220° Southwest 90 104 2,800  Level KA90
Sun 02:51:54 PM 42.5167 -70.9833 180° South 91 105 3,400 550 Climbing KA90
Sun 02:52:59 PM 42.4833 -70.9833 180° South 89 102 3,900 524 Climbing KA90
Sun 02:54:00 PM 42.4667 -71.0000 216° Southwest 86 99 4,500 347 Climbing KA90
Sun 02:55:00 PM 42.4333 -71.0000 180° South 119 137 4,600 100 Climbing KA90
Sun 02:56:00 PM 42.3710 -71.1599 220° Southwest  Level Estimated
Sun 02:56:00 PM 42.4000 -71.0000 180° South 118 136 4,700  Level KA90
Sun 02:57:00 PM 42.3667 -70.9833 160° South 126 145 4,500 -150 Descending KA90
Sun 02:58:00 PM 42.3333 -70.9833 180° South 130 150 4,400  Descending KA90
Sun 02:59:00 PM 42.3000 -70.9833 180° South 124 143 4,500 50 Climbing KA90
Sun 03:00:00 PM 42.2667 -70.9833 180° South 122 140 4,500 -47 Level KA90
Sun 03:01:07 PM 42.2333 -71.0000 200° South 115 132 4,400 30 Descending KA90
Sun 03:03:23 PM 42.1733 -71.0731 222° Southwest 110 127 4,600 63 Climbing Boston Center
Sun 03:04:18 PM 42.1569 -71.1014 232° Southwest 121 139 4,600  Level Boston Center
Sun 03:05:25 PM 42.1469 -71.1436 252° West 123 142 4,600  Level Boston Center
Sun 03:06:26 PM 42.1392 -71.1858 256° West 107 123 4,600 49 Level Boston Center
Sun 03:07:27 PM 42.1311 -71.2194 252° West 113 130 4,700  Climbing Boston Center
Sun 03:08:28 PM 42.1025 -71.2564 224° Southwest 126 145 4,600 -98 Descending Boston Center
Sun 03:09:29 PM 42.0778 -71.2850 221° Southwest 121 139 4,500 -49 Descending Boston Center
Sun 03:10:30 PM 42.0508 -71.3133 218° Southwest 118 136 4,500  Level Boston Center
Sun 03:11:25 PM 42.0261 -71.3389 218° Southwest 117 135 4,500  Level Boston Center
Sun 03:12:26 PM 42.0014 -71.3644 218° Southwest 114 131 4,500 47 Level Boston Center
Sun 03:13:33 PM 41.9706 -71.3958 217° Southwest 122 140 4,600 50 Climbing Boston Center
Sun 03:14:27 PM 41.9497 -71.4239 225° Southwest 113 130 4,600  Level Boston Center
Sun 03:15:28 PM 41.9272 -71.4494 220° Southwest 117 135 4,600 49 Level Boston Center
Sun 03:16:29 PM 41.9044 -71.4778 223° Southwest 113 130 4,700  Climbing Boston Center
Sun 03:17:30 PM 41.8817 -71.5086 225° Southwest 114 131 4,600 -98 Descending Boston Center
Sun 03:18:31 PM 41.8550 -71.5369 218° Southwest 116 133 4,500 -49 Descending Boston Center
Sun 03:19:32 PM 41.8303 -71.5681 223° Southwest 119 137 4,500  Level Boston Center
Sun 03:20:33 PM 41.8053 -71.5961 220° Southwest 114 131 4,500  Level Boston Center
Sun 03:21:34 PM 41.7806 -71.6272 223° Southwest 118 136 4,500 49 Level Boston Center
Sun 03:22:35 PM 41.7619 -71.6581 231° Southwest 109 125 4,600  Climbing Boston Center
Sun 03:23:36 PM 41.7394 -71.6889 226° Southwest 113 130 4,500 -98 Descending Boston Center
Sun 03:24:37 PM 41.7250 -71.7225 240° Southwest 105 121 4,400 -50 Descending Boston Center
Sun 03:25:37 PM 41.7086 -71.7561 237° Southwest 116 133 4,400 49 Level Boston Center
Sun 03:26:39 PM 41.6858 -71.7897 228° Southwest 111 128 4,500 49 Climbing Boston Center
Sun 03:27:40 PM 41.6692 -71.8231 236° Southwest 112 129 4,500  Level Boston Center
Sun 03:28:40 PM 41.6444 -71.8511 220° Southwest 115 132 4,500  Level Boston Center
Sun 03:29:41 PM 41.6281 -71.8875 239° Southwest 111 128 4,500  Level Boston Center
Sun 03:30:42 PM 41.6072 -71.9181 228° Southwest 112 129 4,500 -49 Level Boston Center
Sun 03:31:43 PM 41.5886 -71.9572 238° Southwest 115 132 4,400  Descending Boston Center
Sun 03:32:44 PM 41.5700 -71.9878 231° Southwest 113 130 4,500 49 Climbing Boston Center
Sun 03:33:45 PM 41.5514 -72.0183 231° Southwest 108 124 4,500 -49 Level Boston Center
Sun 03:34:46 PM 41.5306 -72.0519 230° Southwest 115 132 4,400 -49 Descending Boston Center
Sun 03:35:47 PM 41.5036 -72.0825 220° Southwest 122 140 4,400  Level Boston Center
Sun 03:36:47 PM 41.4725 -72.0994 202° Southwest 128 147 4,400  Level Boston Center
Sun 03:37:48 PM 41.4433 -72.1161 203° Southwest 121 139 4,400 98 Level Boston Center
Sun 03:38:49 PM 41.4183 -72.1411 217° Southwest 107 123 4,600 98 Climbing Boston Center
Sun 03:39:50 PM 41.3933 -72.1689 220° Southwest 115 132 4,600  Level Boston Center
Sun 03:40:51 PM 41.3706 -72.1994 225° Southwest 113 130 4,600  Level Boston Center
Sun 03:41:52 PM 41.3478 -72.2300 225° Southwest 117 135 4,600 -30 Level Boston Center
Sun 03:44:14 PM 41.3000 -72.3000 228° Southwest 130 150 4,500 -59 Descending New York TRACON
Sun 03:45:14 PM 41.2667 -72.3167 201° Southwest 116 133 4,400 -50 Descending New York TRACON
Sun 03:46:14 PM 41.2500 -72.3500 236° Southwest 118 136 4,400 50 Level New York TRACON
Sun 03:47:14 PM 41.2167 -72.3667 201° Southwest 118 136 4,500 50 Climbing New York TRACON
Sun 03:48:14 PM 41.2000 -72.4000 236° Southwest 111 128 4,500 3,850 Level New York TRACON
Sun 03:49:14 PM 41.1667 -72.4167 201° Southwest 116 133 12,200 50 Climbing New York TRACON
Sun 03:50:14 PM 41.1500 -72.4500 236° Southwest 117 135 4,600 -3,800 Descending New York TRACON
Sun 03:51:14 PM 41.1167 -72.4833 217° Southwest 111 128 4,600  Level New York TRACON
Sun 03:52:14 PM 41.1000 -72.5000 217° Southwest 118 136 4,600  Level New York TRACON
Sun 03:53:14 PM 41.0667 -72.5333 217° Southwest 112 129 4,600  Level New York TRACON
Sun 03:54:14 PM 41.0500 -72.5500 217° Southwest 111 128 4,600  Level New York TRACON
Sun 03:55:14 PM 41.0333 -72.5833 236° Southwest 110 127 4,600 -100 Level New York TRACON
Sun 03:56:14 PM 41.0167 -72.6167 236° Southwest 114 131 4,400 -316 Descending New York TRACON
Sun 03:57:08 PM 41.0000 -72.6500 236° Southwest 115 132 4,000 -421 Descending New York TRACON
Sun 03:58:08 PM 40.9667 -72.6833 217° Southwest 119 137 3,600 -476 Descending New York TRACON
Sun 03:59:14 PM 40.9500 -72.7167 237° Southwest 125 144 3,000 -545 Descending New York TRACON

Login

Don't have an account? Register now (free) for customized features, flight alerts, and more!